Time;durP1;ratioP1;P1;durP2;ratioP2;P2;SDS_P1;SDS_P2;PMS_P1;PMS_P2;Temp;Humidity;BMP_temperature;BMP_pressure;BME280_temperature;BME280_humidity;BME280_pressure;Samples;Min_cycle;Max_cycle;Signal;HPM_P1;HPM_P2
2022/03/18 00:00:54;;;;;;;3.93;3.30;;;8.80;98.00;;;;;;6121491;23;20402;-67
2022/03/18 00:03:21;;;;;;;7.30;3.70;;;8.80;98.00;;;;;;6121161;23;20426;-67
2022/03/18 00:05:48;;;;;;;3.50;3.00;;;8.90;98.00;;;;;;6122099;23;20416;-67
2022/03/18 00:08:16;;;;;;;3.80;2.60;;;8.80;98.00;;;;;;6121629;23;20478;-67
2022/03/18 00:10:44;;;;;;;4.97;3.40;;;8.80;98.00;;;;;;6121332;23;20943;-67
2022/03/18 00:13:12;;;;;;;3.83;2.27;;;8.80;98.00;;;;;;6121249;23;20421;-67
2022/03/18 00:15:39;;;;;;;3.10;2.80;;;8.80;98.00;;;;;;6121406;23;20456;-67
2022/03/18 00:18:07;;;;;;;4.50;3.57;;;8.80;98.00;;;;;;6095838;23;20475;-67
2022/03/18 00:20:34;;;;;;;6.80;3.00;;;8.90;98.00;;;;;;6121288;23;20482;-67
2022/03/18 00:23:01;;;;;;;3.63;2.80;;;9.00;98.00;;;;;;6095163;23;20456;-67
2022/03/18 00:25:31;;;;;;;3.40;2.90;;;9.10;98.00;;;;;;6121256;23;20891;-67
2022/03/18 00:27:58;;;;;;;2.70;2.50;;;9.00;98.00;;;;;;6121706;23;20756;-67
2022/03/18 00:30:25;;;;;;;2.83;2.33;;;9.00;98.00;;;;;;6121264;23;20953;-67
2022/03/18 00:32:53;;;;;;;5.03;3.27;;;8.90;98.00;;;;;;6121727;23;20444;-67
2022/03/18 00:35:21;;;;;;;4.10;3.00;;;8.90;98.00;;;;;;6121287;23;20424;-67
2022/03/18 00:37:48;;;;;;;3.77;2.50;;;8.90;98.00;;;;;;6121324;23;20413;-67
2022/03/18 00:40:15;;;;;;;3.30;2.80;;;9.00;98.00;;;;;;6121280;23;21021;-67
2022/03/18 00:42:42;;;;;;;3.10;2.27;;;9.00;98.00;;;;;;6121531;23;20476;-67
2022/03/18 00:45:10;;;;;;;2.37;2.23;;;9.00;98.00;;;;;;6121617;23;20749;-67
2022/03/18 00:53:08;;;;;;;6.60;2.80;;;9.00;98.00;;;;;;6121685;23;20393;-67
2022/03/18 00:55:35;;;;;;;3.10;2.67;;;8.90;98.00;;;;;;6120705;23;20417;-67
2022/03/18 00:58:03;;;;;;;3.93;2.90;;;8.90;98.00;;;;;;6121820;23;20441;-67
2022/03/18 01:00:30;;;;;;;4.97;3.63;;;8.80;98.00;;;;;;6121141;23;20450;-67
2022/03/18 01:02:57;;;;;;;4.03;3.23;;;8.80;98.00;;;;;;6095553;23;20455;-67
2022/03/18 01:05:25;;;;;;;2.70;1.83;;;8.90;98.00;;;;;;6121564;23;20743;-67
2022/03/18 01:07:52;;;;;;;2.57;2.10;;;8.90;98.00;;;;;;6121307;23;20413;-67
2022/03/18 01:10:19;;;;;;;5.17;3.70;;;8.90;98.00;;;;;;6121556;23;20456;-67
2022/03/18 01:12:46;;;;;;;1.83;1.73;;;8.90;98.00;;;;;;6121305;23;20408;-67
2022/03/18 01:15:13;;;;;;;3.23;2.57;;;8.90;98.00;;;;;;6121564;23;20727;-67
2022/03/18 01:17:40;;;;;;;3.17;2.97;;;8.90;98.00;;;;;;6121175;23;20860;-67
2022/03/18 01:20:09;;;;;;;4.67;3.00;;;8.80;98.00;;;;;;6121706;23;20488;-67
2022/03/18 01:22:38;;;;;;;8.23;5.23;;;8.80;98.00;;;;;;6121058;23;20456;-67
2022/03/18 01:25:07;;;;;;;5.70;3.13;;;8.80;98.00;;;;;;6121244;23;20417;-67
2022/03/18 01:27:34;;;;;;;3.77;3.27;;;8.80;98.00;;;;;;6121399;23;20417;-66
2022/03/18 01:30:01;;;;;;;3.40;2.90;;;8.80;98.00;;;;;;6121546;23;20420;-67
2022/03/18 01:32:28;;;;;;;4.60;3.10;;;8.90;98.00;;;;;;6121497;23;20709;-67
2022/03/18 01:34:55;;;;;;;2.17;2.03;;;8.90;98.00;;;;;;6121456;23;20421;-67
2022/03/18 01:37:23;;;;;;;2.13;1.97;;;8.90;98.00;;;;;;6121539;23;20475;-67
2022/03/18 01:39:51;;;;;;;3.33;2.43;;;8.90;98.00;;;;;;6121124;23;20455;-67
2022/03/18 01:42:18;;;;;;;2.40;2.20;;;9.00;98.00;;;;;;6121506;23;20474;-67
2022/03/18 01:44:47;;;;;;;3.50;2.40;;;8.80;98.00;;;;;;6121582;23;20479;-67
2022/03/18 01:47:14;;;;;;;1.80;1.80;;;8.90;98.00;;;;;;6121502;23;20464;-67
2022/03/18 01:49:42;;;;;;;2.63;2.43;;;8.90;98.00;;;;;;6121738;23;20463;-67
2022/03/18 01:52:10;;;;;;;3.33;2.57;;;8.90;98.00;;;;;;6120853;23;20928;-67
2022/03/18 01:54:48;;;;;;;3.43;2.67;;;8.90;98.00;;;;;;6121411;23;20826;-67
2022/03/18 01:57:19;;;;;;;3.03;2.13;;;9.00;98.00;;;;;;6121023;23;20917;-67
2022/03/18 01:59:47;;;;;;;3.53;2.37;;;9.00;98.00;;;;;;6121707;23;20795;-67
2022/03/18 02:02:15;;;;;;;3.53;2.67;;;9.00;98.00;;;;;;6121352;23;21071;-67
2022/03/18 02:04:42;;;;;;;2.20;1.43;;;9.00;98.00;;;;;;6121389;23;20401;-67
2022/03/18 02:07:09;;;;;;;3.30;2.67;;;9.00;98.00;;;;;;6121178;23;20418;-67
2022/03/18 02:09:38;;;;;;;3.30;1.63;;;8.90;98.00;;;;;;6121333;23;20429;-67
2022/03/18 02:12:06;;;;;;;2.50;2.00;;;8.80;98.00;;;;;;6095824;23;20719;-67
2022/03/18 02:14:37;;;;;;;4.80;2.73;;;8.80;98.00;;;;;;6120919;23;20447;-67
2022/03/18 02:17:06;;;;;;;3.67;2.17;;;8.70;98.00;;;;;;6120929;23;20872;-67
2022/03/18 02:19:34;;;;;;;3.23;3.03;;;8.80;98.00;;;;;;6120367;23;20449;-67
2022/03/18 02:22:05;;;;;;;6.00;2.97;;;8.80;98.00;;;;;;6121339;23;20917;-68
2022/03/18 02:24:33;;;;;;;2.93;2.60;;;8.70;98.00;;;;;;6121341;23;20720;-67
2022/03/18 02:27:00;;;;;;;2.63;2.47;;;8.80;98.00;;;;;;6121397;23;20419;-67
2022/03/18 02:29:29;;;;;;;2.70;2.03;;;8.70;98.00;;;;;;6121290;23;20424;-67
2022/03/18 02:31:56;;;;;;;1.60;1.50;;;8.80;98.00;;;;;;6121290;23;20428;-67
2022/03/18 02:34:24;;;;;;;2.50;2.03;;;8.90;98.00;;;;;;6121413;23;20460;-67
2022/03/18 02:36:51;;;;;;;2.00;1.90;;;9.00;98.00;;;;;;6121098;23;20404;-67
2022/03/18 02:39:18;;;;;;;3.90;2.20;;;8.90;98.00;;;;;;6121333;23;20417;-67
2022/03/18 02:41:47;;;;;;;1.33;1.30;;;8.90;98.00;;;;;;6120920;23;20448;-67
2022/03/18 02:44:14;;;;;;;2.07;1.93;;;8.80;98.00;;;;;;6120636;23;20504;-67
2022/03/18 02:46:41;;;;;;;3.00;2.37;;;8.70;98.00;;;;;;6120982;23;20441;-67
2022/03/18 02:49:08;;;;;;;3.87;2.27;;;8.70;98.00;;;;;;6120806;23;20428;-67
2022/03/18 02:51:37;;;;;;;3.20;2.50;;;9.00;98.00;;;;;;6121122;23;20457;-67
2022/03/18 02:54:05;;;;;;;2.17;2.07;;;9.10;98.00;;;;;;6120893;23;20425;-67
2022/03/18 02:56:32;;;;;;;8.60;2.90;;;9.10;98.00;;;;;;6120702;23;20883;-66
2022/03/18 02:59:03;;;;;;;2.50;2.20;;;8.90;98.00;;;;;;6120870;23;20741;-67
2022/03/18 03:01:31;;;;;;;2.80;2.60;;;8.90;98.00;;;;;;6121333;23;20433;-66
2022/03/18 03:03:59;;;;;;;5.17;2.73;;;8.90;98.00;;;;;;6120738;23;20445;-67
2022/03/18 03:09:12;;;;;;;4.70;2.37;;;8.90;98.00;;;;;;6130646;23;20858;-66
2022/03/18 03:11:39;;;;;;;2.87;2.50;;;8.90;98.00;;;;;;6120986;23;20423;-67
2022/03/18 03:14:08;;;;;;;2.70;2.50;;;8.90;98.00;;;;;;6120960;23;20408;-67
2022/03/18 03:16:35;;;;;;;3.20;1.93;;;8.90;98.00;;;;;;6095594;23;20406;-67
2022/03/18 03:19:03;;;;;;;2.73;2.53;;;8.90;98.00;;;;;;6120839;23;20413;-67
2022/03/18 03:21:30;;;;;;;2.73;2.17;;;8.90;98.00;;;;;;6120694;23;20452;-67
2022/03/18 03:23:57;;;;;;;3.20;1.83;;;9.00;98.00;;;;;;6120889;23;20499;-68
2022/03/18 03:26:25;;;;;;;3.03;2.03;;;9.10;98.00;;;;;;6120725;23;20462;-67
2022/03/18 03:28:52;;;;;;;2.43;2.17;;;9.10;98.00;;;;;;6121203;23;20433;-66
2022/03/18 03:31:20;;;;;;;2.13;1.80;;;9.20;98.00;;;;;;6121290;23;20400;-67
2022/03/18 03:33:47;;;;;;;3.87;2.73;;;9.20;98.00;;;;;;6121896;23;20446;-67
2022/03/18 03:36:14;;;;;;;2.40;1.97;;;9.20;98.00;;;;;;6121928;23;20757;-67
2022/03/18 03:38:42;;;;;;;2.40;2.20;;;;;;;;;;6121457;23;20863;-66
2022/03/18 03:41:12;;;;;;;4.00;2.57;;;9.20;98.00;;;;;;6121898;23;20942;-67
2022/03/18 03:43:39;;;;;;;3.83;1.87;;;9.20;98.00;;;;;;6096778;23;20443;-66
2022/03/18 03:46:07;;;;;;;4.80;3.07;;;9.20;98.00;;;;;;6121480;23;20427;-66
2022/03/18 03:48:35;;;;;;;2.03;1.93;;;9.00;98.00;;;;;;6121434;23;20459;-67
2022/03/18 03:51:02;;;;;;;5.03;2.57;;;9.00;98.00;;;;;;6121425;23;20424;-67
2022/03/18 03:53:29;;;;;;;1.70;1.70;;;9.10;98.00;;;;;;6121808;23;20502;-67
2022/03/18 03:55:56;;;;;;;2.40;2.03;;;9.10;98.00;;;;;;6122039;23;20472;-66
2022/03/18 03:58:23;;;;;;;3.67;1.97;;;9.20;98.00;;;;;;6095628;23;20431;-67
2022/03/18 04:00:50;;;;;;;1.63;1.60;;;9.10;98.00;;;;;;6121357;23;20951;-67
2022/03/18 04:03:17;;;;;;;1.90;1.43;;;9.20;98.00;;;;;;6121781;23;20414;-67
2022/03/18 04:05:45;;;;;;;3.40;1.70;;;9.00;98.00;;;;;;6121495;23;20416;-67
2022/03/18 04:08:13;;;;;;;2.33;1.80;;;9.00;98.00;;;;;;6121471;23;20944;-67
2022/03/18 04:10:42;;;;;;;3.73;1.90;;;9.00;98.00;;;;;;6072339;23;20954;-67
2022/03/18 04:13:10;;;;;;;2.13;1.97;;;9.10;98.00;;;;;;6122169;23;20423;-67
2022/03/18 04:15:38;;;;;;;1.70;1.63;;;9.10;98.00;;;;;;6121925;23;20442;-66
2022/03/18 04:18:05;;;;;;;1.20;1.20;;;9.10;98.00;;;;;;6121956;23;20409;-66
2022/03/18 04:20:33;;;;;;;2.83;2.33;;;9.00;98.00;;;;;;6122123;23;20425;-67
2022/03/18 04:23:02;;;;;;;2.20;2.00;;;8.80;98.00;;;;;;6121491;23;20425;-67
2022/03/18 04:25:30;;;;;;;3.30;2.57;;;8.90;98.00;;;;;;6121558;23;20900;-67
2022/03/18 04:27:57;;;;;;;2.27;2.07;;;8.90;98.00;;;;;;6121356;23;20423;-67
2022/03/18 04:30:24;;;;;;;2.53;1.97;;;8.90;98.00;;;;;;6121459;23;20425;-66
2022/03/18 04:32:51;;;;;;;2.40;1.97;;;9.00;98.00;;;;;;6094678;23;20464;-67
2022/03/18 04:35:19;;;;;;;3.00;2.77;;;9.00;98.00;;;;;;6120594;23;20928;-66
2022/03/18 04:37:46;;;;;;;2.80;2.23;;;9.00;98.00;;;;;;6095524;23;20421;-67
2022/03/18 04:40:15;;;;;;;2.53;2.20;;;8.90;98.00;;;;;;6121491;23;20475;-67
2022/03/18 04:42:44;;;;;;;4.50;2.67;;;8.90;98.00;;;;;;6121087;23;20782;-66
2022/03/18 04:45:12;;;;;;;2.17;1.60;;;9.00;98.00;;;;;;6121718;23;20405;-67
2022/03/18 04:47:39;;;;;;;1.63;1.53;;;8.90;98.00;;;;;;6121867;23;20492;-66
2022/03/18 04:50:07;;;;;;;2.37;2.17;;;8.90;98.00;;;;;;6122153;23;20452;-67
2022/03/18 04:52:34;;;;;;;2.57;1.63;;;8.90;98.00;;;;;;6121623;23;20420;-66
2022/03/18 04:55:01;;;;;;;1.73;1.63;;;8.90;98.00;;;;;;6121280;23;20959;-66
2022/03/18 04:57:31;;;;;;;1.30;1.30;;;9.00;98.00;;;;;;6121714;23;20467;-67
2022/03/18 04:59:58;;;;;;;2.97;2.17;;;9.00;98.00;;;;;;6121302;23;20432;-67
2022/03/18 05:02:28;;;;;;;1.77;1.67;;;9.00;98.00;;;;;;6121218;23;20417;-67
2022/03/18 05:04:55;;;;;;;1.30;1.30;;;9.00;98.00;;;;;;6121353;23;20404;-67
2022/03/18 05:07:24;;;;;;;2.90;2.10;;;9.00;98.00;;;;;;6121407;23;20419;-67
2022/03/18 05:09:51;;;;;;;2.47;2.30;;;9.00;98.00;;;;;;6121603;23;20506;-66
2022/03/18 05:12:19;;;;;;;5.17;2.80;;;9.10;98.00;;;;;;6121601;23;20405;-67
2022/03/18 05:14:47;;;;;;;2.17;1.97;;;9.10;98.00;;;;;;6120855;23;20405;-67
2022/03/18 05:17:14;;;;;;;4.77;2.50;;;9.10;98.00;;;;;;6120597;23;20424;-66
2022/03/18 05:19:41;;;;;;;2.80;2.00;;;9.00;98.00;;;;;;6121504;23;20401;-67
2022/03/18 05:22:08;;;;;;;3.10;2.77;;;8.90;98.00;;;;;;6121207;23;20486;-67
2022/03/18 05:24:36;;;;;;;4.27;2.73;;;8.90;98.00;;;;;;6121243;23;20442;-66
2022/03/18 05:27:03;;;;;;;2.53;1.93;;;8.80;98.00;;;;;;6120962;23;20943;-66
2022/03/18 05:29:30;;;;;;;3.63;3.03;;;8.90;98.00;;;;;;6121608;23;20420;-67
2022/03/18 05:32:00;;;;;;;4.47;1.87;;;8.90;98.00;;;;;;6121296;23;20440;-67
2022/03/18 05:34:27;;;;;;;2.47;2.27;;;9.00;98.00;;;;;;6121186;23;20404;-66
2022/03/18 05:36:54;;;;;;;6.63;2.23;;;9.00;98.00;;;;;;6120662;23;20483;-66
2022/03/18 05:39:21;;;;;;;3.07;2.57;;;9.00;98.00;;;;;;6121255;23;20404;-67
2022/03/18 05:41:48;;;;;;;5.30;2.20;;;9.00;98.00;;;;;;6121536;23;20513;-67
2022/03/18 05:44:15;;;;;;;2.23;2.00;;;8.90;98.00;;;;;;6121104;23;20459;-67
2022/03/18 05:46:42;;;;;;;2.50;2.30;;;9.00;98.00;;;;;;6121206;23;20443;-66
2022/03/18 05:49:11;;;;;;;2.13;1.90;;;9.00;98.00;;;;;;6092052;23;20451;-67
2022/03/18 05:51:38;;;;;;;5.50;3.03;;;8.90;98.00;;;;;;6092405;23;20739;-67
2022/03/18 05:54:05;;;;;;;3.70;2.90;;;8.90;98.00;;;;;;6065969;23;20420;-67
2022/03/18 05:59:18;;;;;;;2.53;1.70;;;8.90;98.00;;;;;;6101958;23;20820;-66
2022/03/18 06:01:45;;;;;;;2.03;1.90;;;8.80;98.00;;;;;;6092487;23;20447;-66
2022/03/18 06:04:14;;;;;;;2.13;1.97;;;8.80;98.00;;;;;;6092578;23;20473;-67
2022/03/18 06:06:43;;;;;;;4.20;2.80;;;8.80;98.00;;;;;;6092508;23;20420;-66
2022/03/18 06:11:57;;;;;;;5.17;2.23;;;8.90;98.00;;;;;;6080293;23;20394;-66
2022/03/18 06:14:27;;;;;;;2.87;2.13;;;8.80;98.00;;;;;;6092028;23;20479;-66
2022/03/18 06:16:56;;;;;;;3.00;2.37;;;8.70;98.00;;;;;;6091741;23;20437;-67
2022/03/18 06:19:25;;;;;;;2.33;1.93;;;8.70;98.00;;;;;;6091828;23;20401;-66
2022/03/18 06:21:52;;;;;;;3.63;2.57;;;8.60;98.00;;;;;;6092210;23;20535;-67
2022/03/18 06:24:21;;;;;;;5.07;3.43;;;8.50;98.00;;;;;;6091971;23;20420;-67
2022/03/18 06:26:49;;;;;;;2.23;2.03;;;8.60;98.00;;;;;;6091750;23;20427;-67
2022/03/18 06:29:16;;;;;;;2.53;1.80;;;8.70;98.00;;;;;;6092206;23;20399;-66
2022/03/18 06:31:43;;;;;;;3.67;2.80;;;8.60;98.00;;;;;;6091219;23;20426;-67
2022/03/18 06:34:11;;;;;;;2.50;1.93;;;8.60;98.00;;;;;;6066612;23;20453;-67
2022/03/18 06:36:40;;;;;;;2.13;1.97;;;8.60;98.00;;;;;;6092022;23;20417;-66
2022/03/18 06:39:08;;;;;;;3.47;2.30;;;8.60;98.00;;;;;;6092064;23;20414;-67
2022/03/18 06:41:35;;;;;;;4.37;2.90;;;8.70;98.00;;;;;;6091807;23;20479;-67
2022/03/18 06:44:02;;;;;;;2.67;2.40;;;8.80;98.00;;;;;;6092092;23;20778;-67
2022/03/18 06:46:29;;;;;;;3.63;2.60;;;8.90;98.00;;;;;;6092283;23;20403;-67
2022/03/18 06:48:56;;;;;;;2.27;2.07;;;8.90;98.00;;;;;;6205483;23;20787;-67
2022/03/18 06:51:23;;;;;;;2.33;2.10;;;8.90;98.00;;;;;;6121486;23;20425;-67
2022/03/18 06:53:51;;;;;;;4.97;3.27;;;8.80;98.00;;;;;;6121127;23;20417;-67
2022/03/18 06:56:18;;;;;;;6.60;3.50;;;8.70;98.00;;;;;;6121566;23;20408;-67
2022/03/18 06:58:45;;;;;;;5.90;2.20;;;8.60;98.00;;;;;;6121319;23;20416;-67
2022/03/18 07:01:13;;;;;;;3.20;2.23;;;8.60;98.00;;;;;;6121061;22;20451;-67
2022/03/18 07:03:40;;;;;;;2.17;1.87;;;8.70;98.00;;;;;;6120558;23;20427;-67
2022/03/18 07:06:07;;;;;;;3.67;2.70;;;8.70;98.00;;;;;;6120420;23;20506;-67
2022/03/18 07:08:35;;;;;;;4.67;2.80;;;8.70;98.00;;;;;;6120953;23;20420;-67
2022/03/18 07:11:04;;;;;;;2.27;1.77;;;8.60;98.00;;;;;;6120475;23;20428;-67
2022/03/18 07:13:31;;;;;;;2.43;2.23;;;8.50;98.00;;;;;;6120858;23;20469;-67
2022/03/18 07:17:54;;;;;;;3.77;2.63;;;8.80;98.00;;;;;;6120533;23;20424;-67
2022/03/18 07:18:45;;;;;;;2.87;2.50;;;8.80;98.00;;;;;;6120653;23;20424;-67
2022/03/18 07:21:12;;;;;;;3.73;2.37;;;9.00;98.00;;;;;;6120680;23;20758;-67
2022/03/18 07:23:39;;;;;;;2.40;2.10;;;8.90;98.00;;;;;;6120266;23;20472;-67
2022/03/18 07:26:07;;;;;;;2.53;2.00;;;9.00;98.00;;;;;;6221924;23;20478;-66
2022/03/18 07:28:35;;;;;;;2.27;2.07;;;8.90;98.00;;;;;;6120773;23;20498;-67
2022/03/18 07:31:02;;;;;;;4.97;3.47;;;8.90;98.00;;;;;;6120952;23;20413;-67
2022/03/18 07:33:31;;;;;;;2.37;2.20;;;9.00;98.00;;;;;;6120870;23;20421;-67
2022/03/18 07:35:58;;;;;;;6.03;3.83;;;9.00;98.00;;;;;;6220158;23;20400;-67
2022/03/18 07:38:25;;;;;;;4.00;3.00;;;9.00;98.00;;;;;;6120909;23;20481;-67
2022/03/18 07:40:52;;;;;;;4.40;2.90;;;9.00;98.00;;;;;;6120515;23;20472;-67
2022/03/18 07:43:20;;;;;;;4.90;2.57;;;9.20;98.00;;;;;;6120495;23;20396;-67
2022/03/18 07:45:47;;;;;;;4.50;2.50;;;9.10;98.00;;;;;;6120764;23;20895;-67
2022/03/18 07:48:14;;;;;;;6.20;2.27;;;9.20;98.00;;;;;;6120154;22;20430;-67
2022/03/18 07:50:41;;;;;;;8.13;3.73;;;9.30;98.00;;;;;;6095491;23;20421;-67
2022/03/18 07:53:10;;;;;;;2.67;2.33;;;9.30;98.00;;;;;;6119939;23;20512;-67
2022/03/18 07:55:40;;;;;;;3.70;3.10;;;9.30;98.00;;;;;;6120476;23;20460;-67
2022/03/18 07:58:07;;;;;;;2.60;2.10;;;9.30;98.00;;;;;;6120276;23;20407;-67
2022/03/18 08:00:46;;;;;;;3.50;3.30;;;9.30;98.00;;;;;;6120420;23;20417;-67
2022/03/18 08:03:14;;;;;;;1.97;1.87;;;9.30;98.00;;;;;;6120248;23;20797;-67
2022/03/18 08:05:41;;;;;;;2.03;1.90;;;9.50;98.00;;;;;;6120397;23;20419;-67
2022/03/18 08:08:08;;;;;;;3.97;2.90;;;9.50;98.00;;;;;;6120242;23;20459;-67
2022/03/18 08:10:36;;;;;;;3.40;2.47;;;9.60;98.00;;;;;;6119965;23;20420;-67
2022/03/18 08:13:03;;;;;;;2.63;2.10;;;9.60;98.00;;;;;;6120202;23;20485;-67
2022/03/18 08:15:31;;;;;;;2.53;2.33;;;9.70;98.00;;;;;;6120110;23;20474;-69
2022/03/18 08:18:00;;;;;;;10.30;3.50;;;9.90;98.00;;;;;;6119107;23;20777;-69
2022/03/18 08:20:27;;;;;;;1.50;1.47;;;9.90;98.00;;;;;;6120725;23;20404;-69
2022/03/18 08:22:55;;;;;;;2.80;2.50;;;9.80;98.00;;;;;;6120474;23;20502;-69
2022/03/18 08:25:22;;;;;;;3.43;1.97;;;9.80;98.00;;;;;;6120298;23;20463;-68
2022/03/18 08:27:50;;;;;;;2.70;2.27;;;9.80;98.00;;;;;;6120463;23;20404;-67
2022/03/18 08:30:21;;;;;;;3.90;3.10;;;9.70;98.00;;;;;;6120689;23;20764;-68
2022/03/18 08:32:49;;;;;;;7.67;2.60;;;9.80;98.00;;;;;;6094673;23;20506;-67
2022/03/18 08:35:19;;;;;;;4.53;3.50;;;9.80;98.00;;;;;;6094958;23;20407;-67
2022/03/18 08:37:58;;;;;;;2.23;2.03;;;9.80;98.00;;;;;;6120611;23;20408;-68
2022/03/18 08:40:27;;;;;;;2.20;2.00;;;9.70;98.00;;;;;;6120573;23;20456;-68
2022/03/18 08:42:54;;;;;;;3.63;3.00;;;9.80;98.00;;;;;;6120067;23;20470;-68
2022/03/18 08:45:22;;;;;;;3.03;2.83;;;9.70;98.00;;;;;;6120444;23;20461;-68
2022/03/18 08:47:49;;;;;;;5.83;3.03;;;9.70;98.00;;;;;;6120143;23;20428;-64
2022/03/18 08:50:18;;;;;;;6.03;2.80;;;9.70;98.00;;;;;;6119671;23;20419;-67
2022/03/18 08:52:46;;;;;;;2.93;2.53;;;9.80;98.00;;;;;;6120507;23;20419;-67
2022/03/18 08:55:13;;;;;;;3.43;3.23;;;9.90;98.00;;;;;;6120536;23;20500;-67
2022/03/18 08:57:41;;;;;;;2.97;2.60;;;9.90;98.00;;;;;;6120697;23;20555;-67
2022/03/18 09:00:10;;;;;;;8.40;4.13;;;10.00;98.00;;;;;;6120321;23;20444;-68
2022/03/18 09:02:38;;;;;;;6.20;3.13;;;10.10;98.00;;;;;;6119835;23;20433;-67
2022/03/18 09:05:07;;;;;;;3.43;2.73;;;10.20;98.00;;;;;;6120225;23;20405;-67
2022/03/18 09:07:39;;;;;;;1.90;1.80;;;10.20;98.00;;;;;;6119943;23;20483;-67
2022/03/18 09:10:07;;;;;;;3.33;2.40;;;10.30;98.00;;;;;;6120324;23;20408;-67
2022/03/18 09:12:34;;;;;;;2.63;2.43;;;10.30;98.00;;;;;;6119986;23;20779;-66
2022/03/18 09:15:03;;;;;;;2.87;2.63;;;10.30;98.00;;;;;;6120429;23;20443;-66
2022/03/18 09:17:30;;;;;;;3.10;2.60;;;10.50;98.00;;;;;;6121513;23;20467;-66
2022/03/18 09:19:57;;;;;;;2.87;2.30;;;10.60;98.00;;;;;;6121041;23;20453;-67
2022/03/18 09:22:24;;;;;;;6.23;2.80;;;10.50;98.00;;;;;;6120744;23;20484;-67
2022/03/18 09:24:53;;;;;;;4.30;2.63;;;10.50;98.00;;;;;;6121358;23;20412;-67
2022/03/18 09:27:20;;;;;;;5.43;3.00;;;10.70;98.00;;;;;;6121624;23;20438;-67
2022/03/18 09:29:47;;;;;;;7.00;2.93;;;10.70;98.00;;;;;;6121635;23;20444;-67
2022/03/18 09:32:15;;;;;;;5.23;3.20;;;10.70;98.00;;;;;;6095517;23;20433;-67
2022/03/18 09:34:42;;;;;;;2.63;2.40;;;10.70;98.00;;;;;;6121529;23;20439;-67
2022/03/18 09:37:09;;;;;;;1.93;1.90;;;10.70;98.00;;;;;;6121231;23;20420;-67
2022/03/18 09:39:36;;;;;;;3.10;2.33;;;10.80;98.00;;;;;;6120828;23;20957;-67
2022/03/18 09:42:05;;;;;;;4.90;4.00;;;10.90;98.00;;;;;;6121235;23;20477;-67
2022/03/18 09:44:38;;;;;;;4.20;2.10;;;11.00;98.00;;;;;;6120843;23;20420;-67
2022/03/18 09:47:07;;;;;;;4.50;2.90;;;11.00;98.00;;;;;;6094430;23;20459;-67
2022/03/18 09:49:36;;;;;;;5.43;2.70;;;11.00;98.00;;;;;;6120287;23;20483;-67
2022/03/18 09:52:03;;;;;;;4.30;2.40;;;11.00;98.00;;;;;;6120019;23;20533;-68
2022/03/18 09:54:32;;;;;;;6.90;2.97;;;11.00;98.00;;;;;;6120946;23;20404;-67
2022/03/18 09:57:00;;;;;;;4.13;2.80;;;11.00;98.00;;;;;;6121074;23;20422;-66
2022/03/18 09:59:29;;;;;;;4.30;2.50;;;11.00;98.00;;;;;;6121213;23;20774;-67
2022/03/18 10:02:25;;;;;;;3.03;2.70;;;11.00;98.00;;;;;;6121098;23;20433;-67
2022/03/18 10:04:53;;;;;;;3.10;2.13;;;11.20;98.00;;;;;;6121343;23;20498;-67
2022/03/18 10:07:21;;;;;;;5.07;2.67;;;11.30;98.00;;;;;;6121289;23;20401;-66
2022/03/18 10:09:49;;;;;;;3.60;2.53;;;11.40;98.00;;;;;;6121330;23;20401;-66
2022/03/18 10:12:38;;;;;;;9.60;3.37;;;11.60;98.00;;;;;;6121212;23;20449;-66
2022/03/18 10:15:13;;;;;;;3.67;3.20;;;11.60;98.00;;;;;;6095187;23;20425;-66
2022/03/18 10:17:46;;;;;;;4.20;2.80;;;11.60;98.00;;;;;;6121452;23;20413;-66
2022/03/18 10:20:35;;;;;;;2.77;1.70;;;11.60;98.00;;;;;;6121801;23;20518;-66
2022/03/18 10:23:06;;;;;;;3.87;2.23;;;11.70;98.00;;;;;;6121255;23;20449;-66
2022/03/18 10:25:40;;;;;;;3.63;2.60;;;11.80;98.00;;;;;;6121522;23;20529;-66
2022/03/18 10:28:08;;;;;;;2.80;2.40;;;11.80;98.00;;;;;;6120599;23;20422;-66
2022/03/18 10:30:37;;;;;;;2.83;2.60;;;11.80;98.00;;;;;;6093943;23;20425;-66
2022/03/18 10:33:06;;;;;;;2.50;2.20;;;12.00;98.00;;;;;;6120183;23;20962;-66
2022/03/18 10:38:34;;;;;;;3.07;2.50;;;12.30;98.00;;;;;;6130644;23;20399;-66
2022/03/18 10:41:23;;;;;;;7.40;3.47;;;12.30;98.00;;;;;;6120227;23;20403;-66
2022/03/18 10:43:53;;;;;;;7.07;3.40;;;12.40;98.00;;;;;;6120635;23;20464;-66
2022/03/18 10:46:23;;;;;;;4.03;3.60;;;12.40;98.00;;;;;;6120444;23;20434;-66
2022/03/18 10:49:03;;;;;;;4.00;2.47;;;12.50;98.00;;;;;;6119873;23;20771;-66
2022/03/18 10:51:31;;;;;;;4.03;2.60;;;12.50;98.00;;;;;;6119904;23;20686;-66
2022/03/18 10:53:58;;;;;;;5.03;2.73;;;12.50;98.00;;;;;;6120077;23;20401;-66
2022/03/18 10:56:26;;;;;;;3.20;2.23;;;12.50;98.00;;;;;;6119945;23;20772;-66
2022/03/18 10:58:54;;;;;;;7.00;2.67;;;12.60;98.00;;;;;;6120255;23;20672;-66
2022/03/18 11:01:24;;;;;;;3.20;2.37;;;12.80;98.00;;;;;;6120016;23;20419;-66
2022/03/18 11:03:51;;;;;;;6.90;3.00;;;13.00;98.00;;;;;;6094057;23;20430;-66
2022/03/18 11:06:19;;;;;;;4.00;2.60;;;12.90;98.00;;;;;;6120021;23;20427;-66
2022/03/18 11:08:49;;;;;;;4.10;2.53;;;12.90;98.00;;;;;;6120296;23;20456;-66
2022/03/18 11:11:18;;;;;;;2.90;2.60;;;12.90;98.00;;;;;;6120149;23;20406;-66
2022/03/18 11:13:50;;;;;;;3.83;2.70;;;13.00;98.00;;;;;;6120014;23;20411;-66
2022/03/18 11:16:24;;;;;;;5.27;3.37;;;13.00;98.00;;;;;;6119714;23;20459;-66
2022/03/18 11:18:52;;;;;;;3.63;2.83;;;12.90;98.00;;;;;;6120076;23;20403;-66
2022/03/18 11:21:21;;;;;;;4.13;2.43;;;13.00;98.00;;;;;;6120361;23;20418;-66
2022/03/18 11:23:49;;;;;;;3.67;2.87;;;13.10;98.00;;;;;;6119419;23;20987;-66
2022/03/18 11:26:19;;;;;;;3.90;3.13;;;13.30;98.00;;;;;;6119794;23;20458;-66
2022/03/18 11:28:46;;;;;;;5.83;3.73;;;13.60;98.00;;;;;;6119681;23;20406;-66
2022/03/18 11:31:18;;;;;;;4.03;2.50;;;13.70;97.90;;;;;;6119532;23;20452;-66
2022/03/18 11:34:08;;;;;;;4.63;2.67;;;14.00;98.00;;;;;;6119723;23;20400;-66
2022/03/18 11:36:36;;;;;;;2.80;2.00;;;14.20;97.20;;;;;;6119794;23;20459;-66
2022/03/18 11:39:08;;;;;;;6.30;3.13;;;14.40;96.00;;;;;;6119742;23;20416;-66
2022/03/18 11:41:57;;;;;;;2.63;2.03;;;14.50;94.70;;;;;;6119628;23;20751;-66
2022/03/18 11:44:58;;;;;;;2.80;2.10;;;14.50;96.60;;;;;;6094049;23;20423;-66
2022/03/18 11:47:45;;;;;;;4.70;3.03;;;14.60;96.50;;;;;;6120603;23;20435;-66
2022/03/18 11:50:50;;;;;;;3.27;2.80;;;14.40;96.30;;;;;;6120631;23;20424;-66
2022/03/18 11:53:51;;;;;;;3.00;2.00;;;14.40;95.20;;;;;;6120927;23;20414;-66
2022/03/18 11:56:24;;;;;;;2.83;2.53;;;14.40;95.30;;;;;;6120919;23;20467;-66
2022/03/18 11:58:51;;;;;;;3.97;2.83;;;14.30;95.10;;;;;;6120785;23;20426;-66
2022/03/18 12:01:41;;;;;;;2.17;2.00;;;14.40;96.90;;;;;;6120903;23;20923;-66
2022/03/18 12:04:09;;;;;;;2.70;2.50;;;14.50;96.70;;;;;;6094942;23;20438;-66
2022/03/18 12:07:12;;;;;;;3.20;2.50;;;14.50;95.60;;;;;;6120854;23;20909;-66
2022/03/18 12:10:02;;;;;;;4.20;3.17;;;14.50;95.60;;;;;;6113192;23;20788;-66
2022/03/18 12:12:34;;;;;;;3.97;2.50;;;14.40;95.90;;;;;;6120547;23;20755;-66
2022/03/18 12:15:04;;;;;;;4.37;2.93;;;14.50;94.70;;;;;;6119569;23;20500;-66
2022/03/18 12:17:32;;;;;;;3.70;2.30;;;14.70;95.30;;;;;;6120921;23;20405;-66
2022/03/18 12:20:01;;;;;;;10.33;3.77;;;15.00;94.70;;;;;;6120518;23;20405;-67
2022/03/18 12:22:30;;;;;;;5.30;3.53;;;15.40;93.10;;;;;;6120366;23;20431;-67
2022/03/18 12:24:58;;;;;;;4.20;3.07;;;15.70;91.80;;;;;;6118959;23;20426;-67
2022/03/18 12:27:33;;;;;;;4.00;3.13;;;15.80;91.50;;;;;;6119406;23;20401;-67
2022/03/18 12:30:01;;;;;;;2.50;2.17;;;15.90;91.10;;;;;;6118844;23;20423;-66
2022/03/18 12:32:29;;;;;;;5.47;3.10;;;16.10;92.30;;;;;;6119666;23;20428;-66
2022/03/18 12:34:57;;;;;;;4.53;3.37;;;16.20;91.40;;;;;;6119058;23;20424;-66
2022/03/18 12:37:27;;;;;;;3.70;2.73;;;16.20;90.70;;;;;;6119165;23;20471;-66
2022/03/18 12:40:06;;;;;;;5.73;2.60;;;16.40;90.30;;;;;;6119223;23;20430;-66
2022/03/18 12:42:46;;;;;;;4.00;2.37;;;16.60;89.80;;;;;;6119342;23;20435;-67
2022/03/18 12:45:13;;;;;;;5.50;3.00;;;16.80;88.60;;;;;;6119070;23;20421;-66
2022/03/18 12:47:40;;;;;;;6.97;2.77;;;16.90;88.30;;;;;;6119505;23;20492;-67
2022/03/18 12:50:07;;;;;;;5.23;2.60;;;17.00;88.40;;;;;;6118621;23;20932;-68
2022/03/18 12:52:44;;;;;;;3.70;2.70;;;17.10;87.10;;;;;;6120565;23;20409;-66
2022/03/18 12:55:13;;;;;;;3.07;2.60;;;17.10;86.90;;;;;;6120795;23;20458;-66
2022/03/18 12:57:43;;;;;;;5.83;3.07;;;17.00;87.30;;;;;;6120531;23;20414;-67
2022/03/18 13:00:13;;;;;;;3.40;2.83;;;17.00;86.80;;;;;;6120817;23;20415;-66
2022/03/18 13:02:42;;;;;;;6.27;2.50;;;16.70;87.10;;;;;;6120785;23;20614;-66
2022/03/18 13:05:15;;;;;;;4.90;2.53;;;16.60;87.60;;;;;;6120797;23;20424;-66
2022/03/18 13:07:42;;;;;;;5.57;2.90;;;16.40;88.20;;;;;;6120693;23;20400;-66
2022/03/18 13:10:10;;;;;;;3.53;2.50;;;16.40;88.50;;;;;;6120414;23;20424;-66
2022/03/18 13:12:38;;;;;;;5.63;3.27;;;16.40;87.70;;;;;;6120256;23;20473;-66
2022/03/18 13:15:18;;;;;;;6.73;2.77;;;16.20;89.80;;;;;;6094204;23;20435;-66
2022/03/18 13:17:46;;;;;;;5.00;3.20;;;16.20;88.20;;;;;;6120140;23;20437;-66
2022/03/18 13:20:24;;;;;;;4.57;2.40;;;16.20;88.70;;;;;;6120543;23;20428;-66